Time;durP1;ratioP1;P1;durP2;ratioP2;P2;SDS_P1;SDS_P2;PMS_P1;PMS_P2;Temp;Humidity;BMP_temperature;BMP_pressure;BME280_temperature;BME280_humidity;BME280_pressure;Samples;Min_cycle;Max_cycle;Signal;HPM_P1;HPM_P2
2022/07/10 00:00:38;;;;;;;2.80;1.00;;;24.30;49.30;;;;;;5112703;28;20043;-65
2022/07/10 00:03:05;;;;;;;6.07;1.42;;;24.20;49.40;;;;;;5112338;28;20031;-64
2022/07/10 00:05:31;;;;;;;2.13;1.00;;;24.20;49.00;;;;;;5112115;28;20538;-65
2022/07/10 00:07:57;;;;;;;3.95;1.00;;;24.20;48.80;;;;;;5112406;28;20027;-64
2022/07/10 00:10:23;;;;;;;1.73;1.10;;;24.20;48.50;;;;;;5112390;28;20096;-64
2022/07/10 00:12:50;;;;;;;2.42;1.08;;;24.10;48.20;;;;;;5112686;28;20047;-64
2022/07/10 00:15:17;;;;;;;4.15;1.10;;;24.10;48.30;;;;;;5112337;28;20032;-64
2022/07/10 00:17:44;;;;;;;4.13;1.08;;;24.10;48.30;;;;;;5112495;28;20039;-64
2022/07/10 00:20:11;;;;;;;3.90;0.90;;;24.10;48.00;;;;;;5112518;28;20032;-64
2022/07/10 00:22:40;;;;;;;2.95;1.20;;;24.10;48.20;;;;;;5112315;28;20031;-64
2022/07/10 00:25:09;;;;;;;5.70;1.02;;;24.00;48.40;;;;;;5112253;28;20547;-66
2022/07/10 00:27:34;;;;;;;2.53;0.90;;;24.00;48.20;;;;;;5112463;28;20040;-64
2022/07/10 00:30:01;;;;;;;1.65;1.00;;;24.00;48.10;;;;;;5112545;28;20385;-64
2022/07/10 00:32:26;;;;;;;3.97;1.10;;;24.00;48.60;;;;;;5112172;28;20075;-64
2022/07/10 00:34:52;;;;;;;2.33;1.00;;;24.00;48.30;;;;;;5112076;28;20139;-64
2022/07/10 00:37:20;;;;;;;5.55;1.17;;;24.00;48.20;;;;;;5112360;28;20541;-64
2022/07/10 00:39:47;;;;;;;4.22;1.30;;;24.00;48.30;;;;;;5115181;28;20392;-64
2022/07/10 00:42:14;;;;;;;1.70;1.00;;;24.00;48.90;;;;;;5115869;28;20042;-64
2022/07/10 00:44:41;;;;;;;1.90;0.90;;;24.00;49.20;;;;;;5116388;28;20020;-64
2022/07/10 00:47:09;;;;;;;3.33;1.05;;;24.10;49.10;;;;;;5116235;28;20032;-66
2022/07/10 00:49:35;;;;;;;2.80;1.00;;;24.00;49.30;;;;;;5115978;28;20051;-64
2022/07/10 00:52:04;;;;;;;4.47;0.98;;;24.00;49.60;;;;;;5115826;28;20039;-64
2022/07/10 00:54:30;;;;;;;2.15;1.00;;;24.00;49.50;;;;;;5116068;28;20070;-64
2022/07/10 00:56:57;;;;;;;1.88;0.85;;;24.00;49.60;;;;;;5116166;27;20040;-63
2022/07/10 00:59:25;;;;;;;2.95;1.05;;;24.00;49.40;;;;;;5112956;28;20085;-65
2022/07/10 01:01:51;;;;;;;2.83;0.90;;;24.00;48.70;;;;;;5113979;27;20071;-64
2022/07/10 01:04:17;;;;;;;4.10;0.90;;;24.00;48.50;;;;;;5113649;28;20122;-65
2022/07/10 01:06:43;;;;;;;2.80;1.23;;;24.00;48.70;;;;;;5115363;28;20110;-64
2022/07/10 01:09:09;;;;;;;2.10;0.80;;;24.00;48.80;;;;;;5115377;27;20111;-64
2022/07/10 01:11:37;;;;;;;8.30;1.13;;;24.00;49.10;;;;;;5115909;28;20031;-64
2022/07/10 01:14:03;;;;;;;1.75;0.80;;;24.00;48.80;;;;;;5115228;28;20040;-64
2022/07/10 01:16:29;;;;;;;5.43;1.05;;;24.00;48.40;;;;;;5115795;28;20056;-64
2022/07/10 01:18:56;;;;;;;1.48;0.90;;;24.00;48.30;;;;;;5115219;28;20036;-65
2022/07/10 01:21:33;;;;;;;2.22;1.08;;;24.00;48.30;;;;;;5114973;28;20055;-64
2022/07/10 01:24:03;;;;;;;2.88;0.90;;;24.00;48.40;;;;;;5115497;28;20032;-65
2022/07/10 01:26:29;;;;;;;2.60;0.90;;;24.00;48.20;;;;;;5115251;28;20031;-65
2022/07/10 01:28:55;;;;;;;2.22;1.00;;;24.00;47.90;;;;;;5114818;27;20036;-64
2022/07/10 01:31:26;;;;;;;4.93;0.90;;;24.00;48.10;;;;;;5115197;28;20102;-63
2022/07/10 01:33:53;;;;;;;2.08;0.90;;;24.00;48.60;;;;;;5115311;28;20136;-66
2022/07/10 01:36:20;;;;;;;1.65;0.90;;;24.00;48.20;;;;;;5114834;28;20070;-64
2022/07/10 01:38:46;;;;;;;6.65;0.85;;;24.00;48.00;;;;;;5115254;28;20032;-65
2022/07/10 01:41:12;;;;;;;6.53;1.15;;;24.00;48.00;;;;;;5114647;28;20028;-64
2022/07/10 01:43:42;;;;;;;4.07;1.00;;;24.00;48.00;;;;;;5115129;28;20035;-64
2022/07/10 01:46:10;;;;;;;1.85;0.90;;;24.00;47.90;;;;;;5114939;27;20069;-64
2022/07/10 01:48:37;;;;;;;2.42;0.90;;;23.90;47.80;;;;;;5115193;28;20039;-64
2022/07/10 01:51:03;;;;;;;3.95;1.27;;;23.90;47.90;;;;;;5113647;28;20028;-64
2022/07/10 01:53:29;;;;;;;2.50;1.00;;;23.90;48.30;;;;;;5114952;28;20047;-64
2022/07/10 01:55:55;;;;;;;1.55;0.90;;;23.90;48.70;;;;;;5114989;28;20355;-64
2022/07/10 01:58:21;;;;;;;2.70;1.02;;;23.90;48.60;;;;;;5114615;28;20451;-65
2022/07/10 02:00:47;;;;;;;2.05;0.93;;;23.90;48.80;;;;;;5114475;28;20055;-64
2022/07/10 02:05:57;;;;;;;4.20;0.80;;;23.90;48.30;;;;;;5114777;28;20043;-66
2022/07/10 02:08:23;;;;;;;3.63;0.93;;;23.90;48.30;;;;;;5114556;28;20031;-64
2022/07/10 02:10:49;;;;;;;4.15;1.10;;;23.90;48.20;;;;;;5114628;28;20478;-64
2022/07/10 02:13:17;;;;;;;2.55;0.93;;;23.90;48.10;;;;;;5114067;28;20104;-64
2022/07/10 02:15:43;;;;;;;3.92;0.88;;;23.80;48.20;;;;;;5114684;28;20062;-64
2022/07/10 02:18:09;;;;;;;3.38;0.98;;;23.80;48.70;;;;;;5114541;28;20032;-65
2022/07/10 02:20:35;;;;;;;2.63;1.25;;;23.80;48.30;;;;;;5113883;28;20027;-65
2022/07/10 02:23:01;;;;;;;2.00;0.77;;;23.80;48.20;;;;;;5114234;28;20092;-68
2022/07/10 02:25:26;;;;;;;1.70;0.75;;;23.80;48.30;;;;;;5114063;28;20038;-64
2022/07/10 02:27:52;;;;;;;3.75;0.90;;;23.80;48.60;;;;;;5114061;28;20474;-64
2022/07/10 02:30:18;;;;;;;1.77;0.82;;;23.80;48.90;;;;;;5114062;28;20042;-64
2022/07/10 02:32:44;;;;;;;7.93;1.25;;;23.80;48.80;;;;;;5113922;27;20048;-63
2022/07/10 02:35:09;;;;;;;3.67;0.90;;;23.70;48.70;;;;;;5114065;28;20020;-64
2022/07/10 02:37:35;;;;;;;2.22;0.90;;;23.70;48.90;;;;;;5113762;28;20458;-64
2022/07/10 02:40:01;;;;;;;2.67;1.00;;;23.70;49.20;;;;;;5114225;28;20027;-64
2022/07/10 02:42:26;;;;;;;3.75;1.35;;;23.60;49.40;;;;;;5113874;28;20040;-64
2022/07/10 02:44:52;;;;;;;2.35;1.10;;;23.60;49.50;;;;;;5114141;28;20063;-64
2022/07/10 02:47:18;;;;;;;2.50;0.90;;;23.60;49.50;;;;;;5113450;28;20063;-66
2022/07/10 02:49:44;;;;;;;5.45;0.98;;;23.60;50.10;;;;;;5113651;28;20047;-67
2022/07/10 02:52:10;;;;;;;3.10;0.90;;;23.60;49.60;;;;;;5113101;28;20043;-64
2022/07/10 02:54:36;;;;;;;2.65;0.70;;;23.60;49.90;;;;;;5113873;28;20028;-64
2022/07/10 02:57:02;;;;;;;3.30;1.17;;;23.60;49.50;;;;;;5113983;28;20490;-64
2022/07/10 02:59:28;;;;;;;2.35;1.00;;;23.60;49.70;;;;;;5113727;28;20059;-64
2022/07/10 03:01:53;;;;;;;3.60;1.02;;;23.60;50.10;;;;;;5113186;28;20040;-65
2022/07/10 03:04:19;;;;;;;4.70;1.05;;;23.50;49.70;;;;;;5113609;28;20138;-64
2022/07/10 03:06:45;;;;;;;1.83;0.93;;;23.50;49.30;;;;;;5113754;28;20092;-64
2022/07/10 03:09:10;;;;;;;3.50;1.15;;;23.50;49.30;;;;;;5113398;28;20034;-65
2022/07/10 03:11:36;;;;;;;2.65;1.08;;;23.40;49.30;;;;;;5112839;28;20406;-64
2022/07/10 03:14:02;;;;;;;2.88;1.10;;;23.40;49.40;;;;;;5113158;28;20123;-64
2022/07/10 03:16:28;;;;;;;4.07;1.00;;;23.40;49.50;;;;;;5113472;27;20028;-64
2022/07/10 03:18:54;;;;;;;2.97;0.95;;;23.40;49.70;;;;;;5113351;28;20533;-64
2022/07/10 03:21:19;;;;;;;2.22;0.80;;;23.40;49.60;;;;;;5113468;28;20062;-64
2022/07/10 03:23:45;;;;;;;1.92;0.90;;;23.40;49.70;;;;;;5113330;28;20042;-66
2022/07/10 03:26:10;;;;;;;3.00;0.80;;;23.40;50.20;;;;;;5113062;28;20107;-61
2022/07/10 03:28:36;;;;;;;2.33;0.98;;;23.40;50.60;;;;;;5113163;28;20027;-64
2022/07/10 03:31:02;;;;;;;3.03;0.85;;;23.40;50.70;;;;;;5113110;28;20031;-65
2022/07/10 03:33:28;;;;;;;3.40;1.10;;;23.40;50.50;;;;;;5113067;28;20064;-64
2022/07/10 03:35:54;;;;;;;4.22;1.00;;;23.40;50.30;;;;;;5113196;28;20424;-64
2022/07/10 03:38:20;;;;;;;3.85;0.90;;;23.40;50.10;;;;;;5113095;28;20046;-64
2022/07/10 03:40:47;;;;;;;2.90;1.00;;;23.40;50.00;;;;;;5112725;28;20032;-64
2022/07/10 03:43:14;;;;;;;1.75;0.70;;;23.40;50.30;;;;;;5112007;28;20039;-64
2022/07/10 03:45:40;;;;;;;3.05;1.23;;;23.40;50.70;;;;;;5112326;28;20059;-64
2022/07/10 03:48:05;;;;;;;5.25;0.90;;;23.40;50.60;;;;;;5112677;28;20072;-65
2022/07/10 03:50:32;;;;;;;2.65;0.90;;;23.40;50.20;;;;;;5112790;28;20031;-64
2022/07/10 03:52:58;;;;;;;3.17;1.10;;;23.40;49.90;;;;;;5112866;28;20481;-64
2022/07/10 03:55:25;;;;;;;2.92;1.10;;;23.40;49.80;;;;;;5112758;28;20078;-64
2022/07/10 03:57:53;;;;;;;1.38;0.80;;;23.40;50.10;;;;;;5112650;28;20034;-66
2022/07/10 04:00:26;;;;;;;3.60;1.00;;;23.40;50.50;;;;;;5112608;28;20077;-64
2022/07/10 04:02:59;;;;;;;1.83;0.77;;;23.30;50.40;;;;;;5112655;28;20046;-64
2022/07/10 04:05:26;;;;;;;4.30;0.93;;;23.30;50.50;;;;;;5112600;28;20047;-67
2022/07/10 04:07:52;;;;;;;4.30;1.00;;;23.30;50.50;;;;;;5112580;28;20393;-64
2022/07/10 04:10:19;;;;;;;4.38;0.90;;;23.30;50.70;;;;;;5112500;28;20110;-64
2022/07/10 04:12:45;;;;;;;1.85;0.90;;;23.30;51.00;;;;;;5112319;28;20458;-64
2022/07/10 04:15:11;;;;;;;1.88;0.80;;;23.30;51.00;;;;;;5116706;28;20110;-63
2022/07/10 04:17:36;;;;;;;3.70;0.90;;;23.30;50.90;;;;;;5117099;28;20038;-64
2022/07/10 04:20:03;;;;;;;3.10;0.80;;;23.30;51.00;;;;;;5117254;28;20039;-64
2022/07/10 04:22:29;;;;;;;2.05;1.00;;;23.30;51.20;;;;;;5116831;28;20092;-64
2022/07/10 04:24:55;;;;;;;2.40;1.00;;;23.40;51.10;;;;;;5117155;28;20032;-64
2022/07/10 04:27:20;;;;;;;3.03;1.05;;;23.30;51.30;;;;;;5116626;28;20036;-65
2022/07/10 04:29:46;;;;;;;2.45;1.05;;;23.40;51.50;;;;;;5116808;28;20119;-64
2022/07/10 04:32:12;;;;;;;3.47;0.80;;;23.40;51.70;;;;;;5116142;28;20032;-67
2022/07/10 04:34:38;;;;;;;5.00;1.10;;;23.40;51.50;;;;;;5116296;28;20031;-67
2022/07/10 04:37:05;;;;;;;3.38;0.80;;;23.30;51.30;;;;;;5116295;28;20485;-64
2022/07/10 04:39:30;;;;;;;3.60;0.90;;;23.30;51.30;;;;;;5116495;28;20090;-63
2022/07/10 04:41:56;;;;;;;2.63;1.00;;;23.30;52.00;;;;;;5116235;28;20028;-63
2022/07/10 04:44:22;;;;;;;2.45;1.00;;;23.30;52.00;;;;;;5116031;28;20023;-63
2022/07/10 04:46:47;;;;;;;3.20;1.20;;;23.30;52.50;;;;;;5116217;28;20035;-62
2022/07/10 04:49:13;;;;;;;5.15;0.98;;;23.30;53.20;;;;;;5116108;28;20035;-63
2022/07/10 04:51:39;;;;;;;3.55;1.27;;;23.30;53.50;;;;;;5116089;28;20405;-63
2022/07/10 04:54:05;;;;;;;1.70;1.10;;;23.30;53.90;;;;;;5116000;28;20067;-65
2022/07/10 04:56:30;;;;;;;5.78;1.10;;;23.30;54.50;;;;;;5116228;28;20036;-63
2022/07/10 04:58:56;;;;;;;6.90;1.27;;;23.30;54.90;;;;;;5116064;28;20092;-63
2022/07/10 05:01:22;;;;;;;1.65;0.90;;;23.30;55.00;;;;;;5116123;28;20032;-62
2022/07/10 05:03:48;;;;;;;4.18;0.90;;;23.20;54.90;;;;;;5115945;28;20050;-62
2022/07/10 05:06:13;;;;;;;3.70;1.10;;;23.30;54.80;;;;;;5116013;28;20122;-63
2022/07/10 05:08:39;;;;;;;2.83;1.02;;;23.30;55.50;;;;;;5115883;28;20085;-63
2022/07/10 05:11:05;;;;;;;2.20;1.00;;;23.30;54.80;;;;;;5115863;28;20035;-62
2022/07/10 05:13:31;;;;;;;4.00;1.20;;;23.20;55.10;;;;;;5115992;28;20043;-63
2022/07/10 05:15:56;;;;;;;2.42;1.10;;;23.30;55.50;;;;;;5115831;28;20032;-63
2022/07/10 05:18:22;;;;;;;3.33;1.08;;;23.30;55.40;;;;;;5115546;28;20031;-63
2022/07/10 05:20:49;;;;;;;2.38;0.95;;;23.20;54.70;;;;;;5115743;28;20066;-62
2022/07/10 05:23:15;;;;;;;2.75;1.13;;;23.20;54.40;;;;;;5115734;28;20485;-63
2022/07/10 05:25:41;;;;;;;4.05;1.52;;;23.20;54.50;;;;;;5115065;28;20039;-63
2022/07/10 05:28:08;;;;;;;3.13;1.20;;;23.30;54.50;;;;;;5115595;28;20040;-63
2022/07/10 05:30:33;;;;;;;6.28;1.10;;;23.30;54.50;;;;;;5114891;28;20085;-62
2022/07/10 05:33:00;;;;;;;2.15;0.80;;;23.30;54.70;;;;;;5115396;28;20040;-62
2022/07/10 05:35:26;;;;;;;2.75;0.90;;;23.30;54.60;;;;;;5115315;28;20042;-65
2022/07/10 05:37:52;;;;;;;2.80;1.00;;;23.30;54.40;;;;;;5115230;28;20032;-63
2022/07/10 05:40:18;;;;;;;3.40;0.98;;;23.30;54.20;;;;;;5115301;28;20355;-65
2022/07/10 05:42:44;;;;;;;4.35;0.88;;;23.30;54.10;;;;;;5115192;28;20028;-65
2022/07/10 05:45:11;;;;;;;4.30;1.08;;;23.40;54.40;;;;;;5114814;28;20040;-63
2022/07/10 05:47:37;;;;;;;2.85;1.00;;;23.40;54.80;;;;;;5115086;28;20031;-63
2022/07/10 05:50:03;;;;;;;1.85;0.80;;;23.40;54.50;;;;;;5115005;28;20108;-67
2022/07/10 05:52:29;;;;;;;7.10;2.22;;;23.50;54.20;;;;;;5114741;28;20043;-63
2022/07/10 05:54:58;;;;;;;6.25;1.98;;;23.50;53.90;;;;;;5114794;28;20032;-63
2022/07/10 05:57:24;;;;;;;4.43;1.20;;;23.50;54.00;;;;;;5113622;28;20062;-64
2022/07/10 05:59:50;;;;;;;3.53;1.20;;;23.50;54.00;;;;;;5112089;27;20059;-64
2022/07/10 06:02:16;;;;;;;1.63;1.00;;;23.60;54.10;;;;;;5111867;27;20445;-64
2022/07/10 06:04:42;;;;;;;2.38;1.10;;;23.60;54.20;;;;;;5113575;28;20050;-64
2022/07/10 06:07:08;;;;;;;7.05;1.00;;;23.60;54.20;;;;;;5112765;28;20034;-62
2022/07/10 06:09:34;;;;;;;2.40;1.00;;;23.60;54.30;;;;;;5111699;28;20043;-62
2022/07/10 06:12:00;;;;;;;1.75;1.02;;;23.70;54.30;;;;;;5112102;28;20047;-66
2022/07/10 06:14:26;;;;;;;2.55;1.00;;;23.70;54.50;;;;;;5113909;28;20108;-63
2022/07/10 06:16:52;;;;;;;2.72;0.90;;;23.70;54.70;;;;;;5114113;28;20067;-62
2022/07/10 06:19:18;;;;;;;4.35;1.20;;;23.80;54.60;;;;;;5114003;28;20060;-63
2022/07/10 06:21:44;;;;;;;2.00;1.00;;;23.80;54.60;;;;;;5114027;28;20035;-62
2022/07/10 06:24:10;;;;;;;4.88;1.10;;;23.80;54.60;;;;;;5114586;28;20038;-62
2022/07/10 06:26:36;;;;;;;2.85;1.00;;;23.80;54.60;;;;;;5114118;28;20034;-62
2022/07/10 06:29:02;;;;;;;6.32;1.17;;;23.90;54.50;;;;;;5114421;28;20506;-62
2022/07/10 06:31:28;;;;;;;4.22;0.98;;;23.90;54.70;;;;;;5113900;28;20034;-63
2022/07/10 06:33:54;;;;;;;2.28;1.00;;;23.90;55.00;;;;;;5113489;28;20032;-63
2022/07/10 06:36:20;;;;;;;3.38;1.23;;;23.90;55.10;;;;;;5112794;28;20092;-62
2022/07/10 06:38:45;;;;;;;2.80;1.20;;;24.00;55.20;;;;;;5113963;28;20031;-63
2022/07/10 06:41:11;;;;;;;2.65;1.13;;;24.00;55.30;;;;;;5113876;28;20035;-65
2022/07/10 06:43:37;;;;;;;4.07;0.90;;;24.10;55.40;;;;;;5113685;28;20028;-64
2022/07/10 06:46:03;;;;;;;3.95;1.20;;;24.10;55.40;;;;;;5113697;28;20487;-64
2022/07/10 06:48:29;;;;;;;2.83;0.90;;;24.10;55.40;;;;;;5113118;28;20143;-64
2022/07/10 06:50:54;;;;;;;2.72;0.93;;;24.20;55.60;;;;;;5113443;28;20101;-63
2022/07/10 06:53:26;;;;;;;4.55;1.00;;;24.20;55.50;;;;;;5114405;28;20083;-64
2022/07/10 06:55:52;;;;;;;5.05;1.00;;;24.20;55.40;;;;;;5114549;28;20034;-66
2022/07/10 06:58:17;;;;;;;2.78;1.17;;;24.30;55.40;;;;;;5114192;28;20039;-64
2022/07/10 07:00:43;;;;;;;4.40;1.00;;;24.30;55.10;;;;;;5114282;28;20027;-64
2022/07/10 07:03:09;;;;;;;3.10;0.95;;;24.40;55.30;;;;;;5114379;28;20119;-64
2022/07/10 07:05:35;;;;;;;5.35;1.17;;;24.40;55.20;;;;;;5113565;28;20141;-63
2022/07/10 07:08:00;;;;;;;3.05;1.20;;;24.40;55.20;;;;;;5114228;28;20035;-64
2022/07/10 07:10:26;;;;;;;3.58;1.02;;;24.50;55.50;;;;;;5114418;28;20032;-63
2022/07/10 07:12:51;;;;;;;1.92;0.90;;;24.50;55.70;;;;;;5114087;28;20096;-64
2022/07/10 07:15:17;;;;;;;7.22;1.23;;;24.60;55.70;;;;;;5114187;28;20070;-64
2022/07/10 07:23:13;;;;;;;2.42;0.98;;;24.80;55.90;;;;;;5114580;28;20542;-64
2022/07/10 07:25:44;;;;;;;4.72;1.05;;;24.90;55.90;;;;;;5113853;28;20039;-64
2022/07/10 07:28:12;;;;;;;3.65;0.90;;;25.00;56.00;;;;;;5114175;28;20036;-64
2022/07/10 07:30:38;;;;;;;2.08;1.00;;;25.10;56.30;;;;;;5113892;28;20080;-64
2022/07/10 07:33:04;;;;;;;2.75;1.08;;;25.20;56.30;;;;;;5113901;28;20039;-64
2022/07/10 07:35:30;;;;;;;2.13;0.88;;;25.30;56.50;;;;;;5113813;28;20028;-64
2022/07/10 07:37:56;;;;;;;5.82;1.30;;;25.30;56.10;;;;;;5113839;28;20040;-63
2022/07/10 07:40:23;;;;;;;2.63;0.98;;;25.40;56.60;;;;;;5113449;28;20153;-64
2022/07/10 07:42:55;;;;;;;4.20;1.00;;;25.50;56.60;;;;;;5113834;28;20526;-64
2022/07/10 07:45:25;;;;;;;3.58;1.23;;;25.50;56.40;;;;;;5114102;28;20036;-63
2022/07/10 07:47:59;;;;;;;5.47;1.17;;;25.60;56.10;;;;;;5113737;28;20043;-63
2022/07/10 07:50:27;;;;;;;2.58;0.93;;;25.60;55.80;;;;;;5113730;28;20042;-63
2022/07/10 07:52:53;;;;;;;2.47;0.98;;;25.60;55.60;;;;;;5113421;28;20044;-64
2022/07/10 07:55:21;;;;;;;2.10;0.90;;;25.70;54.90;;;;;;5113553;28;20039;-64
2022/07/10 07:57:47;;;;;;;3.72;1.10;;;25.70;54.80;;;;;;5113816;28;20381;-64
2022/07/10 08:00:14;;;;;;;3.05;1.00;;;25.70;55.10;;;;;;5113398;28;20024;-65
2022/07/10 08:02:41;;;;;;;4.65;1.08;;;25.70;55.00;;;;;;5113533;28;20040;-63
2022/07/10 08:05:07;;;;;;;2.83;1.17;;;25.70;55.00;;;;;;5113249;28;20490;-66
2022/07/10 08:07:37;;;;;;;6.43;1.50;;;25.80;54.70;;;;;;5113753;28;20054;-64
2022/07/10 08:10:04;;;;;;;2.58;1.13;;;25.90;54.50;;;;;;5113358;28;20530;-64
2022/07/10 08:12:30;;;;;;;2.80;1.10;;;26.00;54.10;;;;;;5113247;28;20078;-64
2022/07/10 08:14:56;;;;;;;2.35;1.23;;;26.00;53.80;;;;;;5113324;28;20067;-63
2022/07/10 08:17:21;;;;;;;1.60;1.20;;;26.10;53.70;;;;;;5113577;28;20032;-63
2022/07/10 08:19:47;;;;;;;2.03;0.93;;;26.10;53.40;;;;;;5113330;28;20512;-63
2022/07/10 08:22:13;;;;;;;6.03;1.20;;;26.20;53.20;;;;;;5113217;28;20059;-64
2022/07/10 08:24:39;;;;;;;3.13;1.05;;;26.20;52.40;;;;;;5113634;28;20036;-64
2022/07/10 08:27:07;;;;;;;4.93;1.00;;;26.20;52.10;;;;;;5113243;28;20039;-63
2022/07/10 08:29:33;;;;;;;3.40;1.20;;;26.30;51.80;;;;;;5113382;28;20036;-64
2022/07/10 08:31:59;;;;;;;3.28;1.20;;;26.30;51.40;;;;;;5113258;28;20565;-63
2022/07/10 08:34:25;;;;;;;2.90;0.95;;;26.40;51.20;;;;;;5113315;28;20132;-64
2022/07/10 08:36:50;;;;;;;3.15;0.90;;;26.40;50.20;;;;;;5113173;28;20035;-64
2022/07/10 08:39:20;;;;;;;1.98;1.00;;;26.40;49.20;;;;;;5113242;28;20039;-64
2022/07/10 08:41:49;;;;;;;1.77;0.70;;;26.40;48.40;;;;;;5113238;28;20028;-65
2022/07/10 08:44:17;;;;;;;3.08;0.95;;;26.40;47.90;;;;;;5113220;28;20027;-63
2022/07/10 08:46:43;;;;;;;2.10;0.90;;;26.40;47.00;;;;;;5113174;28;20042;-64
2022/07/10 08:49:11;;;;;;;4.07;1.13;;;26.40;46.80;;;;;;5112997;28;20039;-64
2022/07/10 08:51:59;;;;;;;3.08;1.02;;;26.50;46.70;;;;;;5113216;28;20032;-64
2022/07/10 08:54:28;;;;;;;3.08;1.20;;;26.60;46.40;;;;;;5113031;28;20043;-64
2022/07/10 08:56:57;;;;;;;2.65;1.10;;;26.70;46.00;;;;;;5112980;28;20034;-64
2022/07/10 08:59:23;;;;;;;4.22;1.00;;;26.70;46.10;;;;;;5113097;28;20508;-64
2022/07/10 09:01:49;;;;;;;2.80;0.98;;;26.80;46.40;;;;;;5116867;28;20032;-64
2022/07/10 09:04:19;;;;;;;4.40;1.08;;;26.80;46.60;;;;;;5116439;28;20508;-64
2022/07/10 09:06:45;;;;;;;3.10;1.00;;;26.80;46.60;;;;;;5116754;28;20036;-64
2022/07/10 09:09:11;;;;;;;3.88;1.00;;;26.80;45.20;;;;;;5116706;28;20092;-64
2022/07/10 09:11:40;;;;;;;4.10;0.77;;;26.80;44.20;;;;;;5116803;28;20539;-64
2022/07/10 09:14:08;;;;;;;2.03;0.90;;;26.70;44.80;;;;;;5116554;28;20496;-64
2022/07/10 09:16:36;;;;;;;2.70;0.80;;;26.70;44.40;;;;;;5116592;28;20512;-64
2022/07/10 09:19:21;;;;;;;2.42;0.93;;;26.70;44.30;;;;;;5116530;27;20530;-64
2022/07/10 09:21:50;;;;;;;4.03;0.95;;;26.80;44.50;;;;;;5116472;28;20044;-64
2022/07/10 09:24:19;;;;;;;2.38;0.70;;;26.80;45.00;;;;;;5116574;28;20080;-64
2022/07/10 09:26:56;;;;;;;3.38;1.10;;;26.80;45.20;;;;;;5116480;28;20039;-64
2022/07/10 09:29:22;;;;;;;3.47;1.15;;;26.80;45.50;;;;;;5116225;28;20032;-64
2022/07/10 09:31:51;;;;;;;5.03;0.70;;;26.90;45.70;;;;;;5116575;28;20036;-65
2022/07/10 09:34:17;;;;;;;2.75;1.08;;;27.00;46.00;;;;;;5115962;28;20031;-64
2022/07/10 09:36:43;;;;;;;4.20;0.93;;;27.10;46.00;;;;;;5116056;28;20028;-64
2022/07/10 09:39:09;;;;;;;1.83;1.00;;;27.10;45.60;;;;;;5116375;28;20035;-64
2022/07/10 09:41:35;;;;;;;3.97;0.90;;;27.30;45.10;;;;;;5116062;28;20027;-64
2022/07/10 09:44:07;;;;;;;4.50;0.80;;;27.30;44.20;;;;;;5116231;28;20042;-63
2022/07/10 09:46:38;;;;;;;2.15;0.93;;;27.40;44.30;;;;;;5116019;28;20482;-64
2022/07/10 09:49:12;;;;;;;12.40;2.50;;;27.50;44.10;;;;;;5115670;28;20043;-64
2022/07/10 09:51:39;;;;;;;3.35;1.00;;;27.60;43.70;;;;;;5115599;28;20122;-64
2022/07/10 09:54:07;;;;;;;2.05;0.98;;;27.60;44.00;;;;;;5116000;28;20031;-64
2022/07/10 09:56:42;;;;;;;3.35;0.80;;;27.70;44.30;;;;;;5115753;28;20032;-64
2022/07/10 09:59:13;;;;;;;2.58;1.00;;;27.80;44.00;;;;;;5114682;28;20061;-66
2022/07/10 10:01:48;;;;;;;2.93;0.83;;;27.90;43.30;;;;;;5115092;28;20035;-66
2022/07/10 10:04:15;;;;;;;1.80;0.80;;;;;;;;;;5113547;28;20457;-75
2022/07/10 10:06:42;;;;;;;1.52;0.60;;;28.20;41.00;;;;;;5114267;28;20066;-76
2022/07/10 10:09:27;;;;;;;3.00;0.90;;;28.20;41.70;;;;;;5114984;28;20070;-77
2022/07/10 10:12:11;;;;;;;4.45;1.10;;;28.20;40.30;;;;;;5113740;28;20036;-78
2022/07/10 10:14:39;;;;;;;2.70;0.98;;;28.30;40.60;;;;;;5115243;28;20031;-77
2022/07/10 10:17:07;;;;;;;4.60;0.88;;;28.30;41.30;;;;;;5115133;28;20031;-77
2022/07/10 10:22:19;;;;;;;3.20;0.90;;;28.40;41.70;;;;;;5115919;28;20064;-80
2022/07/10 10:24:46;;;;;;;6.88;0.95;;;28.50;40.60;;;;;;5114843;28;20092;-76
2022/07/10 10:27:13;;;;;;;1.35;0.85;;;28.50;40.80;;;;;;5115260;28;20036;-77
2022/07/10 10:29:39;;;;;;;5.70;0.80;;;28.50;41.20;;;;;;5115098;28;20039;-79
2022/07/10 10:32:08;;;;;;;1.90;0.80;;;28.50;40.20;;;;;;5115706;28;20071;-78
2022/07/10 10:34:58;;;;;;;4.95;0.90;;;28.40;40.60;;;;;;5115267;28;20038;-78
2022/07/10 10:37:38;;;;;;;4.38;0.85;;;28.30;40.00;;;;;;5114887;28;20493;-77
2022/07/10 10:40:09;;;;;;;3.08;0.80;;;28.30;40.50;;;;;;5115344;28;20085;-77
2022/07/10 10:42:43;;;;;;;4.93;0.85;;;28.30;40.10;;;;;;5119371;28;20035;-80
2022/07/10 10:45:31;;;;;;;6.07;1.00;;;28.40;41.20;;;;;;5115612;28;20505;-77
2022/07/10 10:48:15;;;;;;;1.85;0.80;;;28.50;41.20;;;;;;5111174;28;20066;-78
2022/07/10 10:50:50;;;;;;;4.95;1.00;;;28.60;40.40;;;;;;5111831;28;20043;-78
2022/07/10 10:53:22;;;;;;;1.30;0.75;;;28.70;40.50;;;;;;5112801;28;20039;-78
2022/07/10 10:56:00;;;;;;;4.80;0.70;;;28.80;39.40;;;;;;5114741;28;20481;-78
2022/07/10 10:58:36;;;;;;;3.90;0.70;;;28.80;39.10;;;;;;5111298;28;20492;-77
2022/07/10 11:01:28;;;;;;;2.08;0.88;;;28.90;38.60;;;;;;5111780;28;20111;-78
2022/07/10 11:04:12;;;;;;;2.70;1.00;;;28.90;37.60;;;;;;5112957;28;20401;-79
2022/07/10 11:06:52;;;;;;;7.78;1.00;;;29.00;37.60;;;;;;5113972;28;20444;-77
2022/07/10 11:09:28;;;;;;;3.78;0.77;;;29.00;37.90;;;;;;5110721;28;20378;-78
2022/07/10 11:12:05;;;;;;;1.73;0.77;;;29.10;38.40;;;;;;5110997;28;20043;-79
2022/07/10 11:14:32;;;;;;;4.78;0.98;;;29.10;37.90;;;;;;5112378;28;20114;-79
2022/07/10 11:16:59;;;;;;;1.50;0.77;;;29.20;37.90;;;;;;5113796;28;20036;-78
2022/07/10 11:19:26;;;;;;;1.75;0.68;;;29.20;37.70;;;;;;5114187;28;20032;-78
2022/07/10 11:22:06;;;;;;;4.93;0.80;;;29.10;37.60;;;;;;5113916;28;20088;-78
2022/07/10 11:24:46;;;;;;;13.48;0.85;;;29.10;37.60;;;;;;5114004;28;20028;-77
2022/07/10 12:58:11;;;;;;;8.32;1.58;;;28.70;41.20;;;;;;5131214;27;20082;-75
2022/07/10 13:00:44;;;;;;;6.28;1.10;;;28.80;41.40;;;;;;5132762;27;20035;-75
2022/07/10 13:03:17;;;;;;;17.65;3.47;;;28.90;42.00;;;;;;5134770;27;20042;-77
2022/07/10 13:05:43;;;;;;;5.65;1.05;;;28.90;41.60;;;;;;5134438;27;20075;-74
2022/07/10 13:08:18;;;;;;;4.90;1.27;;;28.90;41.80;;;;;;5136575;27;20027;-73
2022/07/10 13:10:46;;;;;;;3.78;0.80;;;28.80;42.10;;;;;;5136677;27;20042;-73
2022/07/10 13:13:12;;;;;;;1.52;0.80;;;28.80;41.70;;;;;;5137213;27;20166;-75
2022/07/10 13:15:46;;;;;;;3.20;1.50;;;28.80;41.70;;;;;;5136127;27;20050;-74
2022/07/10 13:18:18;;;;;;;2.35;0.90;;;28.80;41.80;;;;;;5134544;27;20388;-74
2022/07/10 13:20:45;;;;;;;2.60;0.80;;;28.80;42.00;;;;;;5134807;27;20061;-74
2022/07/10 13:23:11;;;;;;;2.13;0.90;;;28.80;41.60;;;;;;5133511;27;20080;-76
2022/07/10 13:25:38;;;;;;;2.72;1.48;;;28.80;41.60;;;;;;5132371;27;20668;-75
2022/07/10 13:28:04;;;;;;;4.05;0.80;;;28.80;41.80;;;;;;5132382;27;20377;-75
2022/07/10 13:30:31;;;;;;;4.80;0.80;;;28.80;41.80;;;;;;5133190;27;20605;-75
2022/07/10 13:32:57;;;;;;;2.92;0.80;;;28.80;42.20;;;;;;5133978;27;20389;-75
2022/07/10 13:35:23;;;;;;;81.28;6.40;;;28.70;42.40;;;;;;5134425;27;20027;-78
2022/07/10 13:37:49;;;;;;;8.00;1.40;;;28.70;42.40;;;;;;5134060;27;20062;-76
2022/07/10 13:40:14;;;;;;;2.10;0.80;;;28.70;42.10;;;;;;5131690;27;20489;-76
2022/07/10 13:42:40;;;;;;;5.30;1.08;;;28.70;41.90;;;;;;5133954;27;20068;-76
2022/07/10 13:45:08;;;;;;;4.43;1.00;;;28.70;42.00;;;;;;5134028;27;20031;-76
2022/07/10 13:47:34;;;;;;;3.72;0.88;;;28.80;41.90;;;;;;5135288;27;20038;-75
2022/07/10 13:50:00;;;;;;;10.23;1.33;;;28.90;41.90;;;;;;5134655;27;20035;-75
2022/07/10 13:52:26;;;;;;;5.28;1.02;;;28.90;41.50;;;;;;5134327;27;20031;-75
2022/07/10 13:54:51;;;;;;;1.50;0.80;;;28.90;40.80;;;;;;5133906;27;20130;-75
2022/07/10 13:57:17;;;;;;;2.03;0.82;;;28.90;40.90;;;;;;5124300;27;20053;-75
2022/07/10 13:59:43;;;;;;;8.65;1.30;;;28.80;40.60;;;;;;5113939;28;20359;-74
2022/07/10 14:02:08;;;;;;;4.50;0.90;;;28.80;41.20;;;;;;5113526;28;20031;-73
2022/07/10 14:04:34;;;;;;;2.22;0.80;;;28.80;41.50;;;;;;5113335;28;20028;-74
2022/07/10 14:07:00;;;;;;;1.85;0.93;;;28.70;41.20;;;;;;5113966;28;20043;-77
2022/07/10 14:09:26;;;;;;;2.30;1.08;;;28.70;41.40;;;;;;5113332;28;20478;-78
2022/07/10 14:11:52;;;;;;;2.67;1.00;;;28.70;41.90;;;;;;5113094;28;20031;-78
2022/07/10 14:14:18;;;;;;;4.32;0.82;;;28.70;42.00;;;;;;5113441;28;20039;-79
2022/07/10 14:16:43;;;;;;;2.45;0.90;;;28.60;42.20;;;;;;5113394;28;20107;-79
2022/07/10 14:19:10;;;;;;;3.33;1.15;;;;;;;;;;5113472;28;20054;-70
2022/07/10 14:21:37;;;;;;;5.15;1.02;;;28.60;42.30;;;;;;5113340;28;20023;-81
2022/07/10 14:24:04;;;;;;;2.60;0.90;;;28.60;42.70;;;;;;5113093;28;20023;-82
2022/07/10 14:26:29;;;;;;;2.65;0.90;;;28.50;42.50;;;;;;5113109;28;20016;-82
2022/07/10 14:28:55;;;;;;;2.58;1.00;;;28.50;42.30;;;;;;5112807;28;20031;-81
2022/07/10 14:31:21;;;;;;;3.50;0.90;;;28.50;42.30;;;;;;5114300;28;20114;-82